sensor_id;sensor_type;location;lat;lon;timestamp;P1;durP1;ratioP1;P2;durP2;ratioP2
295;SDS011;132;48.770;9.200;2023-03-01T00:02:04;31.55;;;14.55;;
295;SDS011;132;48.770;9.200;2023-03-01T00:04:31;28.73;;;14.98;;
295;SDS011;132;48.770;9.200;2023-03-01T00:06:58;28.52;;;13.85;;
295;SDS011;132;48.770;9.200;2023-03-01T00:09:25;31.48;;;15.25;;
295;SDS011;132;48.770;9.200;2023-03-01T00:11:51;28.45;;;15.18;;
295;SDS011;132;48.770;9.200;2023-03-01T00:14:17;32.67;;;15.18;;
295;SDS011;132;48.770;9.200;2023-03-01T00:16:44;33.72;;;15.68;;
295;SDS011;132;48.770;9.200;2023-03-01T00:19:13;26.58;;;14.68;;
295;SDS011;132;48.770;9.200;2023-03-01T00:21:41;27.85;;;13.82;;
295;SDS011;132;48.770;9.200;2023-03-01T00:24:08;26.90;;;14.35;;
295;SDS011;132;48.770;9.200;2023-03-01T00:26:35;28.80;;;13.95;;
295;SDS011;132;48.770;9.200;2023-03-01T00:29:02;29.48;;;14.70;;
295;SDS011;132;48.770;9.200;2023-03-01T00:31:29;31.92;;;15.00;;
295;SDS011;132;48.770;9.200;2023-03-01T00:33:59;28.45;;;14.32;;
295;SDS011;132;48.770;9.200;2023-03-01T00:36:28;30.88;;;15.45;;
295;SDS011;132;48.770;9.200;2023-03-01T00:38:57;31.38;;;15.70;;
295;SDS011;132;48.770;9.200;2023-03-01T00:41:23;32.83;;;15.00;;
295;SDS011;132;48.770;9.200;2023-03-01T00:43:52;31.45;;;15.80;;
295;SDS011;132;48.770;9.200;2023-03-01T00:46:20;28.02;;;14.90;;
295;SDS011;132;48.770;9.200;2023-03-01T00:48:48;28.73;;;14.63;;
295;SDS011;132;48.770;9.200;2023-03-01T00:51:17;29.80;;;15.82;;
295;SDS011;132;48.770;9.200;2023-03-01T00:53:50;28.65;;;14.98;;
295;SDS011;132;48.770;9.200;2023-03-01T00:56:18;27.70;;;14.48;;
295;SDS011;132;48.770;9.200;2023-03-01T00:58:44;28.80;;;14.77;;
295;SDS011;132;48.770;9.200;2023-03-01T01:01:12;33.40;;;14.82;;
295;SDS011;132;48.770;9.200;2023-03-01T01:03:47;28.70;;;14.35;;
295;SDS011;132;48.770;9.200;2023-03-01T01:06:37;30.52;;;14.18;;
295;SDS011;132;48.770;9.200;2023-03-01T01:09:08;29.00;;;14.93;;
295;SDS011;132;48.770;9.200;2023-03-01T01:11:46;31.55;;;16.27;;
295;SDS011;132;48.770;9.200;2023-03-01T01:14:15;30.38;;;14.75;;
295;SDS011;132;48.770;9.200;2023-03-01T01:16:43;31.40;;;15.20;;
295;SDS011;132;48.770;9.200;2023-03-01T01:19:10;27.70;;;14.00;;
295;SDS011;132;48.770;9.200;2023-03-01T01:21:37;32.13;;;15.55;;
295;SDS011;132;48.770;9.200;2023-03-01T01:24:04;30.38;;;14.40;;
295;SDS011;132;48.770;9.200;2023-03-01T01:26:32;32.70;;;15.10;;
295;SDS011;132;48.770;9.200;2023-03-01T01:29:00;28.75;;;15.15;;
295;SDS011;132;48.770;9.200;2023-03-01T01:31:28;34.90;;;15.65;;
295;SDS011;132;48.770;9.200;2023-03-01T01:33:56;30.30;;;15.57;;
295;SDS011;132;48.770;9.200;2023-03-01T01:36:23;28.98;;;14.90;;
295;SDS011;132;48.770;9.200;2023-03-01T01:38:50;27.67;;;15.25;;
295;SDS011;132;48.770;9.200;2023-03-01T01:41:17;32.95;;;16.25;;
295;SDS011;132;48.770;9.200;2023-03-01T01:43:45;29.92;;;16.38;;
295;SDS011;132;48.770;9.200;2023-03-01T01:46:32;29.80;;;15.30;;
295;SDS011;132;48.770;9.200;2023-03-01T01:49:02;27.70;;;14.60;;
295;SDS011;132;48.770;9.200;2023-03-01T01:51:35;33.97;;;15.20;;
295;SDS011;132;48.770;9.200;2023-03-01T01:57:07;32.65;;;14.38;;
295;SDS011;132;48.770;9.200;2023-03-01T01:59:38;32.75;;;15.48;;
295;SDS011;132;48.770;9.200;2023-03-01T02:02:06;27.73;;;14.75;;
295;SDS011;132;48.770;9.200;2023-03-01T02:04:33;30.27;;;15.02;;
295;SDS011;132;48.770;9.200;2023-03-01T02:07:13;32.70;;;16.35;;
295;SDS011;132;48.770;9.200;2023-03-01T02:09:42;33.72;;;16.73;;
295;SDS011;132;48.770;9.200;2023-03-01T02:12:13;30.58;;;15.23;;
295;SDS011;132;48.770;9.200;2023-03-01T02:14:41;31.75;;;15.55;;
295;SDS011;132;48.770;9.200;2023-03-01T02:17:08;28.98;;;15.77;;
295;SDS011;132;48.770;9.200;2023-03-01T02:19:51;33.50;;;16.33;;
295;SDS011;132;48.770;9.200;2023-03-01T02:22:29;27.90;;;15.23;;
295;SDS011;132;48.770;9.200;2023-03-01T02:27:39;30.23;;;15.90;;
295;SDS011;132;48.770;9.200;2023-03-01T02:30:14;29.83;;;15.30;;
295;SDS011;132;48.770;9.200;2023-03-01T02:32:41;30.88;;;14.32;;
295;SDS011;132;48.770;9.200;2023-03-01T02:35:09;31.15;;;15.95;;
295;SDS011;132;48.770;9.200;2023-03-01T02:37:39;39.85;;;16.45;;
295;SDS011;132;48.770;9.200;2023-03-01T02:40:08;31.90;;;16.25;;
295;SDS011;132;48.770;9.200;2023-03-01T02:42:44;30.25;;;15.98;;
295;SDS011;132;48.770;9.200;2023-03-01T02:45:16;28.80;;;15.00;;
295;SDS011;132;48.770;9.200;2023-03-01T02:47:43;31.20;;;15.88;;
295;SDS011;132;48.770;9.200;2023-03-01T02:50:22;29.52;;;15.25;;
295;SDS011;132;48.770;9.200;2023-03-01T02:52:57;29.13;;;15.20;;
295;SDS011;132;48.770;9.200;2023-03-01T02:55:30;30.27;;;15.00;;
295;SDS011;132;48.770;9.200;2023-03-01T02:57:57;33.08;;;16.08;;
295;SDS011;132;48.770;9.200;2023-03-01T03:00:30;27.38;;;14.40;;
295;SDS011;132;48.770;9.200;2023-03-01T03:03:10;29.35;;;15.38;;
295;SDS011;132;48.770;9.200;2023-03-01T03:05:39;27.70;;;14.32;;
295;SDS011;132;48.770;9.200;2023-03-01T03:08:06;30.33;;;15.30;;
295;SDS011;132;48.770;9.200;2023-03-01T03:10:36;26.63;;;14.90;;
295;SDS011;132;48.770;9.200;2023-03-01T03:13:06;29.67;;;16.05;;
295;SDS011;132;48.770;9.200;2023-03-01T03:15:34;30.20;;;15.38;;
295;SDS011;132;48.770;9.200;2023-03-01T03:18:02;33.42;;;15.80;;
295;SDS011;132;48.770;9.200;2023-03-01T03:20:30;26.55;;;14.38;;
295;SDS011;132;48.770;9.200;2023-03-01T03:22:58;31.48;;;15.88;;
295;SDS011;132;48.770;9.200;2023-03-01T03:25:25;30.70;;;16.55;;
295;SDS011;132;48.770;9.200;2023-03-01T03:27:53;26.45;;;15.50;;
295;SDS011;132;48.770;9.200;2023-03-01T03:30:23;29.98;;;15.18;;
295;SDS011;132;48.770;9.200;2023-03-01T03:32:51;26.80;;;13.85;;
295;SDS011;132;48.770;9.200;2023-03-01T03:37:58;33.47;;;16.20;;
295;SDS011;132;48.770;9.200;2023-03-01T03:40:33;31.73;;;15.38;;
295;SDS011;132;48.770;9.200;2023-03-01T03:43:00;35.30;;;16.27;;
295;SDS011;132;48.770;9.200;2023-03-01T03:45:27;29.33;;;15.45;;
295;SDS011;132;48.770;9.200;2023-03-01T03:47:54;30.77;;;15.95;;
295;SDS011;132;48.770;9.200;2023-03-01T03:50:20;31.02;;;15.80;;
295;SDS011;132;48.770;9.200;2023-03-01T03:52:46;34.33;;;16.90;;
295;SDS011;132;48.770;9.200;2023-03-01T03:55:13;32.33;;;16.23;;
295;SDS011;132;48.770;9.200;2023-03-01T03:57:39;30.83;;;16.67;;
295;SDS011;132;48.770;9.200;2023-03-01T04:00:08;35.53;;;16.77;;
295;SDS011;132;48.770;9.200;2023-03-01T04:02:40;32.03;;;15.95;;
295;SDS011;132;48.770;9.200;2023-03-01T04:05:07;31.42;;;16.30;;
295;SDS011;132;48.770;9.200;2023-03-01T04:07:35;28.45;;;14.75;;
295;SDS011;132;48.770;9.200;2023-03-01T04:10:03;29.23;;;14.85;;
295;SDS011;132;48.770;9.200;2023-03-01T04:12:30;34.00;;;16.75;;
295;SDS011;132;48.770;9.200;2023-03-01T04:14:56;29.05;;;15.07;;
295;SDS011;132;48.770;9.200;2023-03-01T04:17:23;30.98;;;16.45;;
295;SDS011;132;48.770;9.200;2023-03-01T04:19:50;29.35;;;15.15;;
295;SDS011;132;48.770;9.200;2023-03-01T04:22:16;33.00;;;15.77;;
295;SDS011;132;48.770;9.200;2023-03-01T04:24:44;34.47;;;15.80;;
295;SDS011;132;48.770;9.200;2023-03-01T04:27:11;30.52;;;16.40;;
295;SDS011;132;48.770;9.200;2023-03-01T04:29:37;32.83;;;16.30;;
295;SDS011;132;48.770;9.200;2023-03-01T04:32:04;33.83;;;17.17;;
295;SDS011;132;48.770;9.200;2023-03-01T04:34:30;31.48;;;16.40;;
295;SDS011;132;48.770;9.200;2023-03-01T04:36:57;27.75;;;14.88;;
295;SDS011;132;48.770;9.200;2023-03-01T04:39:23;32.05;;;17.33;;
295;SDS011;132;48.770;9.200;2023-03-01T04:41:49;31.42;;;17.42;;
295;SDS011;132;48.770;9.200;2023-03-01T04:44:16;30.73;;;16.05;;
295;SDS011;132;48.770;9.200;2023-03-01T04:46:42;33.63;;;17.45;;
295;SDS011;132;48.770;9.200;2023-03-01T04:49:08;34.55;;;17.52;;
295;SDS011;132;48.770;9.200;2023-03-01T04:51:35;36.08;;;17.45;;
295;SDS011;132;48.770;9.200;2023-03-01T04:54:01;34.70;;;17.20;;
295;SDS011;132;48.770;9.200;2023-03-01T04:56:28;31.98;;;16.17;;
295;SDS011;132;48.770;9.200;2023-03-01T04:58:55;33.45;;;17.25;;
295;SDS011;132;48.770;9.200;2023-03-01T05:01:21;33.78;;;17.05;;
295;SDS011;132;48.770;9.200;2023-03-01T05:03:48;37.20;;;17.60;;
295;SDS011;132;48.770;9.200;2023-03-01T05:06:16;34.60;;;16.25;;
295;SDS011;132;48.770;9.200;2023-03-01T05:08:44;29.85;;;15.43;;
295;SDS011;132;48.770;9.200;2023-03-01T05:11:11;36.15;;;17.02;;
295;SDS011;132;48.770;9.200;2023-03-01T05:13:38;33.95;;;16.13;;
295;SDS011;132;48.770;9.200;2023-03-01T05:16:05;37.30;;;18.55;;
295;SDS011;132;48.770;9.200;2023-03-01T05:18:36;34.78;;;17.35;;
295;SDS011;132;48.770;9.200;2023-03-01T05:21:04;32.53;;;16.13;;
295;SDS011;132;48.770;9.200;2023-03-01T05:23:32;35.33;;;16.92;;
295;SDS011;132;48.770;9.200;2023-03-01T05:26:00;28.92;;;15.00;;
295;SDS011;132;48.770;9.200;2023-03-01T05:28:28;35.90;;;18.55;;
295;SDS011;132;48.770;9.200;2023-03-01T05:30:55;33.53;;;17.20;;
295;SDS011;132;48.770;9.200;2023-03-01T05:33:22;35.67;;;16.98;;
295;SDS011;132;48.770;9.200;2023-03-01T05:35:50;35.63;;;18.05;;
295;SDS011;132;48.770;9.200;2023-03-01T05:38:20;39.85;;;19.08;;
295;SDS011;132;48.770;9.200;2023-03-01T05:40:48;35.92;;;18.45;;
295;SDS011;132;48.770;9.200;2023-03-01T05:43:15;33.83;;;17.95;;
295;SDS011;132;48.770;9.200;2023-03-01T05:45:42;32.92;;;16.70;;
295;SDS011;132;48.770;9.200;2023-03-01T05:48:09;37.58;;;18.52;;
295;SDS011;132;48.770;9.200;2023-03-01T05:50:40;31.15;;;16.85;;
295;SDS011;132;48.770;9.200;2023-03-01T05:53:12;36.08;;;17.35;;
295;SDS011;132;48.770;9.200;2023-03-01T05:55:40;35.45;;;16.92;;
295;SDS011;132;48.770;9.200;2023-03-01T05:58:12;36.20;;;16.20;;
295;SDS011;132;48.770;9.200;2023-03-01T06:00:40;36.35;;;19.42;;
295;SDS011;132;48.770;9.200;2023-03-01T06:03:09;35.50;;;17.90;;
295;SDS011;132;48.770;9.200;2023-03-01T06:05:37;36.25;;;18.55;;
295;SDS011;132;48.770;9.200;2023-03-01T06:08:04;35.72;;;18.45;;
295;SDS011;132;48.770;9.200;2023-03-01T06:10:31;34.05;;;17.60;;
295;SDS011;132;48.770;9.200;2023-03-01T06:12:57;37.08;;;18.88;;
295;SDS011;132;48.770;9.200;2023-03-01T06:15:24;33.15;;;17.05;;
295;SDS011;132;48.770;9.200;2023-03-01T06:17:51;33.22;;;16.73;;
295;SDS011;132;48.770;9.200;2023-03-01T06:20:21;36.35;;;18.80;;
295;SDS011;132;48.770;9.200;2023-03-01T06:22:49;35.58;;;16.58;;
295;SDS011;132;48.770;9.200;2023-03-01T06:25:17;35.17;;;16.83;;
295;SDS011;132;48.770;9.200;2023-03-01T06:27:45;34.08;;;17.05;;
295;SDS011;132;48.770;9.200;2023-03-01T06:30:13;38.05;;;17.70;;
295;SDS011;132;48.770;9.200;2023-03-01T06:32:41;37.08;;;18.17;;
295;SDS011;132;48.770;9.200;2023-03-01T06:35:11;36.80;;;18.17;;
295;SDS011;132;48.770;9.200;2023-03-01T06:37:39;35.10;;;17.45;;
295;SDS011;132;48.770;9.200;2023-03-01T06:40:07;33.22;;;17.95;;
295;SDS011;132;48.770;9.200;2023-03-01T06:42:37;33.53;;;16.27;;
295;SDS011;132;48.770;9.200;2023-03-01T06:45:05;34.08;;;17.42;;
295;SDS011;132;48.770;9.200;2023-03-01T06:47:33;36.25;;;18.45;;
295;SDS011;132;48.770;9.200;2023-03-01T06:50:00;32.92;;;17.55;;
295;SDS011;132;48.770;9.200;2023-03-01T06:52:26;39.03;;;19.15;;
295;SDS011;132;48.770;9.200;2023-03-01T06:54:53;41.70;;;20.08;;
295;SDS011;132;48.770;9.200;2023-03-01T06:57:19;36.75;;;17.70;;
295;SDS011;132;48.770;9.200;2023-03-01T06:59:46;32.33;;;17.45;;
295;SDS011;132;48.770;9.200;2023-03-01T07:02:13;39.72;;;18.42;;
295;SDS011;132;48.770;9.200;2023-03-01T07:04:41;38.85;;;18.40;;
295;SDS011;132;48.770;9.200;2023-03-01T07:07:08;38.58;;;18.27;;
295;SDS011;132;48.770;9.200;2023-03-01T07:09:35;41.85;;;19.00;;
295;SDS011;132;48.770;9.200;2023-03-01T07:12:01;37.95;;;18.95;;
295;SDS011;132;48.770;9.200;2023-03-01T07:14:28;34.10;;;17.75;;
295;SDS011;132;48.770;9.200;2023-03-01T07:16:54;42.47;;;19.55;;
295;SDS011;132;48.770;9.200;2023-03-01T07:19:21;36.42;;;18.27;;
295;SDS011;132;48.770;9.200;2023-03-01T07:21:48;35.33;;;17.55;;
295;SDS011;132;48.770;9.200;2023-03-01T07:24:14;38.22;;;17.95;;
295;SDS011;132;48.770;9.200;2023-03-01T07:26:41;37.22;;;17.05;;
295;SDS011;132;48.770;9.200;2023-03-01T07:29:09;33.55;;;17.45;;
295;SDS011;132;48.770;9.200;2023-03-01T07:31:36;40.28;;;19.98;;
295;SDS011;132;48.770;9.200;2023-03-01T07:34:02;36.70;;;18.50;;
295;SDS011;132;48.770;9.200;2023-03-01T07:36:29;39.75;;;19.50;;
295;SDS011;132;48.770;9.200;2023-03-01T07:38:56;36.90;;;18.60;;
295;SDS011;132;48.770;9.200;2023-03-01T07:41:23;39.50;;;18.80;;
295;SDS011;132;48.770;9.200;2023-03-01T07:43:50;42.88;;;18.63;;
295;SDS011;132;48.770;9.200;2023-03-01T07:46:16;38.42;;;19.20;;
295;SDS011;132;48.770;9.200;2023-03-01T07:48:44;42.47;;;19.85;;
295;SDS011;132;48.770;9.200;2023-03-01T07:51:11;38.65;;;19.73;;
295;SDS011;132;48.770;9.200;2023-03-01T07:53:37;37.53;;;18.90;;
295;SDS011;132;48.770;9.200;2023-03-01T07:56:04;38.70;;;19.63;;
295;SDS011;132;48.770;9.200;2023-03-01T07:58:36;38.03;;;18.95;;
295;SDS011;132;48.770;9.200;2023-03-01T08:01:04;41.38;;;18.70;;
295;SDS011;132;48.770;9.200;2023-03-01T08:03:32;40.30;;;18.05;;
295;SDS011;132;48.770;9.200;2023-03-01T08:05:59;45.30;;;20.90;;
295;SDS011;132;48.770;9.200;2023-03-01T08:08:26;37.80;;;19.40;;
295;SDS011;132;48.770;9.200;2023-03-01T08:10:55;40.53;;;19.55;;
295;SDS011;132;48.770;9.200;2023-03-01T08:13:22;42.30;;;19.10;;
295;SDS011;132;48.770;9.200;2023-03-01T08:15:49;39.90;;;19.88;;
295;SDS011;132;48.770;9.200;2023-03-01T08:18:16;37.88;;;19.60;;
295;SDS011;132;48.770;9.200;2023-03-01T08:20:44;37.15;;;19.23;;
295;SDS011;132;48.770;9.200;2023-03-01T08:23:10;40.67;;;18.85;;
295;SDS011;132;48.770;9.200;2023-03-01T08:25:37;40.83;;;19.85;;
295;SDS011;132;48.770;9.200;2023-03-01T08:28:04;39.53;;;19.42;;
295;SDS011;132;48.770;9.200;2023-03-01T08:30:31;37.95;;;19.27;;
295;SDS011;132;48.770;9.200;2023-03-01T08:32:58;42.30;;;20.80;;
295;SDS011;132;48.770;9.200;2023-03-01T08:35:25;40.38;;;19.35;;
295;SDS011;132;48.770;9.200;2023-03-01T08:37:51;40.97;;;20.63;;
295;SDS011;132;48.770;9.200;2023-03-01T08:40:18;40.65;;;21.08;;
295;SDS011;132;48.770;9.200;2023-03-01T08:42:44;39.30;;;19.98;;
295;SDS011;132;48.770;9.200;2023-03-01T08:45:11;39.28;;;20.48;;
295;SDS011;132;48.770;9.200;2023-03-01T08:47:39;40.45;;;20.80;;
295;SDS011;132;48.770;9.200;2023-03-01T08:50:06;43.80;;;21.00;;
295;SDS011;132;48.770;9.200;2023-03-01T08:52:32;46.58;;;19.40;;
295;SDS011;132;48.770;9.200;2023-03-01T08:54:59;44.78;;;20.40;;
295;SDS011;132;48.770;9.200;2023-03-01T08:57:27;39.22;;;19.52;;
295;SDS011;132;48.770;9.200;2023-03-01T08:59:53;40.08;;;19.55;;
295;SDS011;132;48.770;9.200;2023-03-01T09:02:21;39.17;;;20.80;;
295;SDS011;132;48.770;9.200;2023-03-01T09:04:48;40.22;;;19.90;;
295;SDS011;132;48.770;9.200;2023-03-01T09:07:14;40.53;;;19.83;;
295;SDS011;132;48.770;9.200;2023-03-01T09:09:41;42.10;;;21.25;;
295;SDS011;132;48.770;9.200;2023-03-01T09:12:07;37.88;;;19.75;;
295;SDS011;132;48.770;9.200;2023-03-01T09:14:33;36.95;;;20.23;;
295;SDS011;132;48.770;9.200;2023-03-01T09:17:00;41.33;;;20.25;;
295;SDS011;132;48.770;9.200;2023-03-01T09:19:28;41.08;;;20.38;;
295;SDS011;132;48.770;9.200;2023-03-01T09:21:55;44.38;;;19.48;;
295;SDS011;132;48.770;9.200;2023-03-01T09:24:22;39.20;;;19.45;;
295;SDS011;132;48.770;9.200;2023-03-01T09:26:50;40.65;;;19.60;;
295;SDS011;132;48.770;9.200;2023-03-01T09:29:19;35.92;;;18.85;;
295;SDS011;132;48.770;9.200;2023-03-01T09:31:46;38.28;;;19.50;;
295;SDS011;132;48.770;9.200;2023-03-01T09:34:12;41.63;;;19.55;;
295;SDS011;132;48.770;9.200;2023-03-01T09:36:41;39.05;;;19.27;;
295;SDS011;132;48.770;9.200;2023-03-01T09:39:08;38.17;;;19.67;;
295;SDS011;132;48.770;9.200;2023-03-01T09:46:42;41.60;;;20.23;;
295;SDS011;132;48.770;9.200;2023-03-01T09:49:18;36.42;;;19.80;;
295;SDS011;132;48.770;9.200;2023-03-01T09:51:59;37.28;;;18.85;;
295;SDS011;132;48.770;9.200;2023-03-01T09:54:32;32.85;;;17.00;;
295;SDS011;132;48.770;9.200;2023-03-01T09:57:19;33.65;;;18.63;;
295;SDS011;132;48.770;9.200;2023-03-01T10:10:34;40.70;;;20.52;;
295;SDS011;132;48.770;9.200;2023-03-01T10:13:04;37.03;;;18.83;;
295;SDS011;132;48.770;9.200;2023-03-01T10:15:44;39.50;;;19.13;;
295;SDS011;132;48.770;9.200;2023-03-01T10:18:17;37.05;;;17.70;;
295;SDS011;132;48.770;9.200;2023-03-01T10:20:54;34.97;;;17.95;;
295;SDS011;132;48.770;9.200;2023-03-01T10:23:24;36.85;;;18.45;;
295;SDS011;132;48.770;9.200;2023-03-01T10:29:05;37.92;;;18.58;;
295;SDS011;132;48.770;9.200;2023-03-01T10:31:45;33.72;;;18.45;;
295;SDS011;132;48.770;9.200;2023-03-01T10:34:18;34.60;;;17.23;;
295;SDS011;132;48.770;9.200;2023-03-01T10:36:50;41.13;;;18.13;;
295;SDS011;132;48.770;9.200;2023-03-01T10:39:22;40.17;;;18.92;;
295;SDS011;132;48.770;9.200;2023-03-01T10:42:05;36.00;;;18.85;;
295;SDS011;132;48.770;9.200;2023-03-01T10:44:49;32.70;;;18.08;;
295;SDS011;132;48.770;9.200;2023-03-01T10:47:21;34.30;;;17.67;;
295;SDS011;132;48.770;9.200;2023-03-01T10:50:00;31.42;;;16.33;;
295;SDS011;132;48.770;9.200;2023-03-01T10:52:33;35.05;;;16.50;;
295;SDS011;132;48.770;9.200;2023-03-01T10:57:41;31.20;;;16.70;;
295;SDS011;132;48.770;9.200;2023-03-01T11:00:15;34.65;;;18.50;;
295;SDS011;132;48.770;9.200;2023-03-01T11:03:01;33.13;;;17.17;;
295;SDS011;132;48.770;9.200;2023-03-01T11:05:29;33.10;;;17.38;;
295;SDS011;132;48.770;9.200;2023-03-01T11:07:59;31.52;;;16.45;;
295;SDS011;132;48.770;9.200;2023-03-01T11:10:33;41.42;;;18.05;;
295;SDS011;132;48.770;9.200;2023-03-01T11:13:17;28.35;;;16.23;;
295;SDS011;132;48.770;9.200;2023-03-01T11:18:35;26.88;;;15.75;;
295;SDS011;132;48.770;9.200;2023-03-01T11:21:02;30.20;;;16.77;;
295;SDS011;132;48.770;9.200;2023-03-01T11:23:30;29.90;;;17.30;;
295;SDS011;132;48.770;9.200;2023-03-01T11:26:02;31.67;;;16.55;;
295;SDS011;132;48.770;9.200;2023-03-01T11:28:33;30.20;;;15.77;;
295;SDS011;132;48.770;9.200;2023-03-01T11:31:04;31.10;;;17.17;;
295;SDS011;132;48.770;9.200;2023-03-01T11:33:42;31.30;;;17.58;;
295;SDS011;132;48.770;9.200;2023-03-01T11:36:35;30.48;;;16.58;;
295;SDS011;132;48.770;9.200;2023-03-01T11:39:12;30.73;;;17.13;;
295;SDS011;132;48.770;9.200;2023-03-01T11:41:48;33.10;;;17.17;;
295;SDS011;132;48.770;9.200;2023-03-01T11:44:20;28.27;;;16.50;;
295;SDS011;132;48.770;9.200;2023-03-01T11:49:43;30.60;;;16.77;;
295;SDS011;132;48.770;9.200;2023-03-01T11:52:21;30.23;;;17.17;;
295;SDS011;132;48.770;9.200;2023-03-01T12:03:20;29.58;;;16.23;;
295;SDS011;132;48.770;9.200;2023-03-01T12:08:54;30.13;;;16.55;;
295;SDS011;132;48.770;9.200;2023-03-01T12:11:47;29.98;;;16.90;;
295;SDS011;132;48.770;9.200;2023-03-01T12:14:48;29.65;;;16.27;;
295;SDS011;132;48.770;9.200;2023-03-01T12:25:39;30.70;;;17.58;;
295;SDS011;132;48.770;9.200;2023-03-01T12:31:31;27.88;;;16.15;;
295;SDS011;132;48.770;9.200;2023-03-01T12:39:44;28.40;;;16.60;;
295;SDS011;132;48.770;9.200;2023-03-01T12:45:02;31.67;;;15.73;;
295;SDS011;132;48.770;9.200;2023-03-01T12:47:49;28.10;;;15.05;;
295;SDS011;132;48.770;9.200;2023-03-01T12:50:41;29.10;;;16.00;;
295;SDS011;132;48.770;9.200;2023-03-01T12:56:22;30.40;;;15.82;;
295;SDS011;132;48.770;9.200;2023-03-01T12:58:56;30.38;;;16.75;;
295;SDS011;132;48.770;9.200;2023-03-01T13:07:22;29.77;;;15.60;;
295;SDS011;132;48.770;9.200;2023-03-01T13:17:52;23.60;;;14.18;;
295;SDS011;132;48.770;9.200;2023-03-01T13:20:31;25.60;;;15.00;;
295;SDS011;132;48.770;9.200;2023-03-01T13:31:56;24.35;;;13.00;;
295;SDS011;132;48.770;9.200;2023-03-01T13:33:57;24.65;;;13.48;;
295;SDS011;132;48.770;9.200;2023-03-01T13:44:28;26.58;;;16.13;;
295;SDS011;132;48.770;9.200;2023-03-01T13:55:29;30.08;;;17.27;;
295;SDS011;132;48.770;9.200;2023-03-01T13:58:15;32.92;;;17.40;;
295;SDS011;132;48.770;9.200;2023-03-01T14:01:00;32.67;;;17.63;;
295;SDS011;132;48.770;9.200;2023-03-01T14:03:29;37.22;;;19.17;;
295;SDS011;132;48.770;9.200;2023-03-01T14:08:26;32.70;;;19.15;;
295;SDS011;132;48.770;9.200;2023-03-01T14:19:24;32.15;;;18.70;;
295;SDS011;132;48.770;9.200;2023-03-01T14:24:52;31.65;;;18.02;;
295;SDS011;132;48.770;9.200;2023-03-01T14:27:37;31.48;;;18.00;;
295;SDS011;132;48.770;9.200;2023-03-01T14:30:24;32.55;;;18.00;;
295;SDS011;132;48.770;9.200;2023-03-01T14:32:54;38.08;;;18.83;;
295;SDS011;132;48.770;9.200;2023-03-01T14:35:26;34.65;;;19.80;;
295;SDS011;132;48.770;9.200;2023-03-01T14:37:55;30.48;;;18.70;;
295;SDS011;132;48.770;9.200;2023-03-01T14:40:23;32.42;;;16.90;;
295;SDS011;132;48.770;9.200;2023-03-01T14:42:52;32.40;;;17.60;;
295;SDS011;132;48.770;9.200;2023-03-01T14:45:20;34.08;;;18.58;;
295;SDS011;132;48.770;9.200;2023-03-01T14:47:48;32.00;;;17.40;;
295;SDS011;132;48.770;9.200;2023-03-01T14:52:50;31.58;;;17.88;;
295;SDS011;132;48.770;9.200;2023-03-01T14:55:22;31.70;;;17.15;;
295;SDS011;132;48.770;9.200;2023-03-01T14:58:05;27.30;;;15.48;;
295;SDS011;132;48.770;9.200;2023-03-01T15:00:37;27.80;;;16.50;;
295;SDS011;132;48.770;9.200;2023-03-01T15:03:11;34.15;;;18.27;;
295;SDS011;132;48.770;9.200;2023-03-01T15:05:41;30.05;;;16.88;;
295;SDS011;132;48.770;9.200;2023-03-01T15:08:11;35.42;;;18.08;;
295;SDS011;132;48.770;9.200;2023-03-01T15:11:00;30.45;;;17.02;;
295;SDS011;132;48.770;9.200;2023-03-01T15:13:33;31.52;;;17.77;;
295;SDS011;132;48.770;9.200;2023-03-01T15:16:02;27.83;;;16.55;;
295;SDS011;132;48.770;9.200;2023-03-01T15:18:45;33.22;;;17.92;;
295;SDS011;132;48.770;9.200;2023-03-01T15:21:17;32.13;;;16.75;;
295;SDS011;132;48.770;9.200;2023-03-01T15:23:55;29.58;;;16.85;;
295;SDS011;132;48.770;9.200;2023-03-01T15:26:33;31.75;;;17.80;;
295;SDS011;132;48.770;9.200;2023-03-01T15:29:10;27.08;;;16.60;;
295;SDS011;132;48.770;9.200;2023-03-01T15:31:58;30.67;;;17.38;;
295;SDS011;132;48.770;9.200;2023-03-01T15:34:30;32.78;;;17.92;;
295;SDS011;132;48.770;9.200;2023-03-01T15:36:58;36.22;;;18.05;;
295;SDS011;132;48.770;9.200;2023-03-01T15:39:29;34.30;;;17.63;;
295;SDS011;132;48.770;9.200;2023-03-01T15:47:52;35.22;;;18.33;;
295;SDS011;132;48.770;9.200;2023-03-01T15:50:27;34.47;;;17.98;;
295;SDS011;132;48.770;9.200;2023-03-01T15:52:55;31.23;;;16.90;;
295;SDS011;132;48.770;9.200;2023-03-01T15:55:27;36.25;;;17.77;;
295;SDS011;132;48.770;9.200;2023-03-01T16:00:45;35.45;;;17.45;;
295;SDS011;132;48.770;9.200;2023-03-01T16:03:14;33.17;;;18.45;;
295;SDS011;132;48.770;9.200;2023-03-01T16:05:47;32.70;;;17.42;;
295;SDS011;132;48.770;9.200;2023-03-01T16:08:16;27.98;;;16.30;;
295;SDS011;132;48.770;9.200;2023-03-01T16:10:43;36.45;;;17.45;;
295;SDS011;132;48.770;9.200;2023-03-01T16:13:11;32.75;;;18.13;;
295;SDS011;132;48.770;9.200;2023-03-01T16:15:38;28.00;;;16.33;;
295;SDS011;132;48.770;9.200;2023-03-01T16:18:05;33.83;;;17.40;;
295;SDS011;132;48.770;9.200;2023-03-01T16:20:33;38.35;;;17.30;;
295;SDS011;132;48.770;9.200;2023-03-01T16:23:01;29.55;;;16.30;;
295;SDS011;132;48.770;9.200;2023-03-01T16:25:29;29.27;;;15.80;;
295;SDS011;132;48.770;9.200;2023-03-01T16:27:57;28.75;;;15.85;;
295;SDS011;132;48.770;9.200;2023-03-01T16:30:26;30.50;;;16.65;;
295;SDS011;132;48.770;9.200;2023-03-01T16:32:53;31.48;;;16.58;;
295;SDS011;132;48.770;9.200;2023-03-01T16:35:20;31.15;;;16.85;;
295;SDS011;132;48.770;9.200;2023-03-01T16:37:47;34.20;;;16.75;;
295;SDS011;132;48.770;9.200;2023-03-01T16:40:18;29.48;;;16.55;;
295;SDS011;132;48.770;9.200;2023-03-01T16:42:47;29.35;;;15.73;;
295;SDS011;132;48.770;9.200;2023-03-01T16:45:14;32.60;;;16.05;;
295;SDS011;132;48.770;9.200;2023-03-01T16:47:40;32.78;;;15.63;;
295;SDS011;132;48.770;9.200;2023-03-01T16:50:07;30.50;;;17.08;;
295;SDS011;132;48.770;9.200;2023-03-01T16:52:34;36.95;;;16.98;;
295;SDS011;132;48.770;9.200;2023-03-01T16:55:01;27.98;;;15.90;;
295;SDS011;132;48.770;9.200;2023-03-01T16:57:29;31.58;;;17.13;;
295;SDS011;132;48.770;9.200;2023-03-01T16:59:56;28.60;;;15.25;;
295;SDS011;132;48.770;9.200;2023-03-01T17:02:22;27.60;;;15.52;;
295;SDS011;132;48.770;9.200;2023-03-01T17:04:53;28.35;;;15.50;;
295;SDS011;132;48.770;9.200;2023-03-01T17:07:21;31.00;;;15.82;;
295;SDS011;132;48.770;9.200;2023-03-01T17:09:48;34.05;;;15.82;;
295;SDS011;132;48.770;9.200;2023-03-01T17:12:15;30.23;;;15.27;;
295;SDS011;132;48.770;9.200;2023-03-01T17:14:41;28.70;;;15.63;;
295;SDS011;132;48.770;9.200;2023-03-01T17:17:08;30.08;;;15.23;;
295;SDS011;132;48.770;9.200;2023-03-01T17:19:35;28.52;;;16.02;;
295;SDS011;132;48.770;9.200;2023-03-01T17:22:07;30.08;;;14.45;;
295;SDS011;132;48.770;9.200;2023-03-01T17:24:34;32.08;;;16.08;;
295;SDS011;132;48.770;9.200;2023-03-01T17:27:02;27.15;;;15.27;;
295;SDS011;132;48.770;9.200;2023-03-01T17:29:29;31.27;;;15.25;;
295;SDS011;132;48.770;9.200;2023-03-01T17:31:55;25.67;;;13.85;;
295;SDS011;132;48.770;9.200;2023-03-01T17:34:22;26.48;;;14.13;;
295;SDS011;132;48.770;9.200;2023-03-01T17:36:49;28.98;;;15.32;;
295;SDS011;132;48.770;9.200;2023-03-01T17:39:20;32.53;;;15.57;;
295;SDS011;132;48.770;9.200;2023-03-01T17:41:51;26.13;;;14.32;;
295;SDS011;132;48.770;9.200;2023-03-01T17:44:17;30.13;;;16.38;;
295;SDS011;132;48.770;9.200;2023-03-01T17:46:44;30.08;;;15.40;;